createdAt,value
2018-07-28T00:02:26.365Z,23.90
2018-07-28T00:04:54.773Z,24.00
2018-07-28T00:07:23.224Z,24.00
2018-07-28T00:09:51.633Z,24.00
2018-07-28T00:12:20.020Z,24.00
2018-07-28T00:14:48.507Z,24.00
2018-07-28T00:17:16.925Z,24.00
2018-07-28T00:19:45.342Z,24.00
2018-07-28T00:22:13.766Z,24.00
2018-07-28T00:24:42.212Z,23.90
2018-07-28T00:27:10.601Z,23.80
2018-07-28T00:29:39.091Z,23.80
2018-07-28T00:32:07.529Z,23.60
2018-07-28T00:34:36.101Z,23.50
2018-07-28T00:37:04.518Z,23.40
2018-07-28T00:39:32.932Z,23.50
2018-07-28T00:42:01.385Z,23.40
2018-07-28T00:44:29.792Z,23.30
2018-07-28T00:46:59.146Z,23.40
2018-07-28T00:49:27.560Z,23.30
2018-07-28T00:51:55.996Z,23.30
2018-07-28T00:54:24.406Z,23.30
2018-07-28T00:56:52.862Z,23.30
2018-07-28T00:59:21.278Z,23.30
2018-07-28T01:01:49.729Z,23.30
2018-07-28T01:04:18.133Z,23.30
2018-07-28T01:06:46.648Z,23.30
2018-07-28T01:11:43.204Z,23.20
2018-07-28T01:16:39.816Z,23.20
2018-07-28T01:19:08.262Z,23.20
2018-07-28T01:21:37.335Z,23.20
2018-07-28T01:26:33.895Z,23.20
2018-07-28T01:29:07.547Z,23.10
2018-07-28T01:31:35.985Z,23.10
2018-07-28T01:34:04.440Z,23.10
2018-07-28T01:36:32.891Z,23.10
2018-07-28T01:39:01.288Z,23.00
2018-07-28T01:41:29.696Z,23.10
2018-07-28T01:46:26.229Z,22.90
2018-07-28T01:48:54.612Z,22.90
2018-07-28T01:51:23.069Z,22.90
2018-07-28T01:53:51.481Z,22.80
2018-07-28T01:56:19.886Z,22.80
2018-07-28T01:58:48.317Z,22.70
2018-07-28T02:01:16.728Z,22.70
2018-07-28T02:06:13.275Z,22.60
2018-07-28T02:08:41.689Z,22.60
2018-07-28T02:11:10.130Z,22.60
2018-07-28T02:13:38.580Z,22.50
2018-07-28T02:16:07.184Z,22.60
2018-07-28T02:18:35.708Z,22.70
2018-07-28T02:21:04.176Z,22.70
2018-07-28T02:26:00.704Z,22.70
2018-07-28T02:28:29.140Z,22.70
2018-07-28T02:30:57.655Z,22.60
2018-07-28T02:33:26.127Z,22.60
2018-07-28T02:35:54.544Z,22.50
2018-07-28T02:40:51.092Z,22.50
2018-07-28T02:43:19.531Z,22.40
2018-07-28T02:45:47.957Z,22.40
2018-07-28T02:48:16.383Z,22.50
2018-07-28T02:50:44.779Z,22.50
2018-07-28T02:53:13.217Z,22.60
2018-07-28T02:55:41.692Z,22.60
2018-07-28T02:58:10.099Z,22.60
2018-07-28T03:00:38.493Z,22.50
2018-07-28T03:03:06.996Z,22.50
2018-07-28T03:05:35.411Z,22.50
2018-07-28T03:08:03.913Z,22.50
2018-07-28T03:10:32.324Z,22.50
2018-07-28T03:13:00.750Z,22.40
2018-07-28T03:18:00.022Z,22.50
2018-07-28T03:20:28.668Z,22.40
2018-07-28T03:22:57.129Z,22.40
2018-07-28T03:25:25.767Z,22.40
2018-07-28T03:27:54.380Z,22.40
2018-07-28T03:30:22.828Z,22.40
2018-07-28T03:32:51.364Z,22.20
2018-07-28T03:35:19.827Z,22.30
2018-07-28T03:37:48.237Z,22.30
2018-07-28T03:40:16.651Z,22.20
2018-07-28T03:42:45.061Z,22.20
2018-07-28T03:45:13.497Z,22.30
2018-07-28T03:47:42.280Z,22.20
2018-07-28T03:50:11.100Z,22.20
2018-07-28T03:55:08.700Z,22.00
2018-07-28T03:57:37.111Z,21.80
2018-07-28T04:00:08.361Z,21.90
2018-07-28T04:02:36.774Z,21.90
2018-07-28T04:05:06.717Z,22.00
2018-07-28T04:07:35.118Z,22.00
2018-07-28T04:10:03.623Z,22.00
2018-07-28T04:12:32.036Z,22.00
2018-07-28T04:15:00.464Z,22.10
2018-07-28T04:17:28.880Z,22.20
2018-07-28T04:19:57.300Z,22.30
2018-07-28T04:22:25.704Z,22.40
2018-07-28T04:24:54.110Z,22.40
2018-07-28T04:27:22.516Z,22.50
2018-07-28T04:29:50.945Z,22.30
2018-07-28T04:34:47.524Z,22.40
2018-07-28T04:37:15.926Z,22.60
2018-07-28T04:39:44.359Z,22.90
2018-07-28T04:44:40.929Z,23.40
2018-07-28T04:49:37.481Z,23.60
2018-07-28T04:52:05.899Z,23.60
2018-07-28T04:54:34.335Z,23.70
2018-07-28T04:59:30.863Z,24.20
2018-07-28T05:01:59.312Z,24.30
2018-07-28T05:04:27.741Z,24.60
2018-07-28T05:06:56.180Z,25.20
2018-07-28T05:09:24.584Z,25.40
2018-07-28T05:11:53.046Z,25.60
2018-07-28T05:14:21.468Z,26.00
2018-07-28T05:16:49.880Z,26.30
2018-07-28T05:19:18.305Z,26.00
2018-07-28T05:21:46.767Z,25.90
2018-07-28T05:24:15.179Z,25.90
2018-07-28T05:26:43.607Z,26.00
2018-07-28T05:29:12.016Z,25.80
2018-07-28T05:31:40.505Z,25.90
2018-07-28T05:34:08.961Z,25.80
2018-07-28T05:36:37.368Z,25.50
2018-07-28T05:39:08.963Z,25.80
2018-07-28T05:44:05.721Z,25.40
2018-07-28T05:46:34.147Z,25.20
2018-07-28T05:49:02.559Z,24.80
2018-07-28T05:51:31.085Z,24.70
2018-07-28T05:53:59.479Z,24.70
2018-07-28T05:56:27.920Z,25.20
2018-07-28T05:58:56.304Z,25.10
2018-07-28T06:01:24.744Z,24.80
2018-07-28T06:03:53.128Z,24.80
2018-07-28T06:06:21.592Z,24.70
2018-07-28T06:08:49.991Z,25.10
2018-07-28T06:11:18.434Z,25.40
2018-07-28T06:13:47.021Z,25.10
2018-07-28T06:16:15.481Z,25.30
2018-07-28T06:18:43.901Z,25.40
2018-07-28T06:21:12.308Z,25.40
2018-07-28T06:23:40.756Z,25.40
2018-07-28T06:26:09.329Z,25.40
2018-07-28T06:28:37.829Z,25.50
2018-07-28T06:31:06.301Z,25.90
2018-07-28T06:33:34.773Z,26.10
2018-07-28T06:36:03.225Z,25.90
2018-07-28T06:38:31.642Z,26.20
2018-07-28T06:41:00.037Z,26.30
2018-07-28T06:43:28.453Z,26.40
2018-07-28T06:45:56.860Z,26.20
2018-07-28T06:48:25.278Z,26.60
2018-07-28T06:50:53.749Z,26.30
2018-07-28T06:55:50.264Z,27.00
2018-07-28T06:58:19.073Z,27.20
2018-07-28T07:00:47.537Z,26.80
2018-07-28T07:03:15.984Z,26.50
2018-07-28T07:05:45.939Z,26.40
2018-07-28T07:08:14.448Z,26.30
2018-07-28T07:10:42.841Z,26.40
2018-07-28T07:13:11.244Z,26.30
2018-07-28T07:15:39.640Z,26.40
2018-07-28T07:18:09.073Z,26.30
2018-07-28T07:20:37.464Z,26.40
2018-07-28T07:23:05.920Z,26.10
2018-07-28T07:25:34.389Z,26.10
2018-07-28T07:28:02.832Z,26.20
2018-07-28T07:30:31.304Z,26.10
2018-07-28T07:32:59.677Z,26.10
2018-07-28T07:35:28.096Z,26.10
2018-07-28T07:40:24.652Z,26.20
2018-07-28T07:45:21.247Z,26.10
2018-07-28T07:47:49.657Z,26.30
2018-07-28T07:50:18.083Z,26.20
2018-07-28T07:52:46.521Z,26.10
2018-07-28T07:55:14.931Z,26.10
2018-07-28T08:00:11.773Z,26.10
2018-07-28T08:02:40.217Z,26.20
2018-07-28T08:05:08.661Z,26.20
2018-07-28T08:07:37.068Z,26.10
2018-07-28T08:10:06.062Z,26.00
2018-07-28T08:12:34.500Z,26.00
2018-07-28T08:15:02.994Z,26.00
2018-07-28T08:17:31.388Z,26.00
2018-07-28T08:19:59.789Z,26.00
2018-07-28T08:22:28.337Z,26.00
2018-07-28T08:24:56.753Z,25.70
2018-07-28T08:27:25.276Z,25.50
2018-07-28T08:29:53.741Z,25.50
2018-07-28T08:32:22.164Z,25.50
2018-07-28T08:34:50.584Z,25.40
2018-07-28T08:37:18.984Z,25.20
2018-07-28T08:39:47.421Z,25.40
2018-07-28T08:42:15.918Z,25.40
2018-07-28T08:44:44.345Z,25.40
2018-07-28T08:47:12.953Z,25.40
2018-07-28T08:49:41.463Z,25.50
2018-07-28T08:52:09.808Z,25.60
2018-07-28T08:57:06.424Z,25.60
2018-07-28T08:59:34.922Z,25.60
2018-07-28T09:02:03.352Z,25.70
2018-07-28T09:04:31.790Z,25.90
2018-07-28T09:07:00.229Z,26.10
2018-07-28T09:09:28.656Z,26.20
2018-07-28T09:14:31.711Z,26.30
2018-07-28T09:17:00.119Z,26.70
2018-07-28T09:19:28.532Z,27.00
2018-07-28T09:24:25.048Z,27.40
2018-07-28T09:26:53.507Z,27.80
2018-07-28T09:29:21.900Z,27.80
2018-07-28T09:31:50.336Z,27.70
2018-07-28T09:34:18.739Z,27.50
2018-07-28T09:36:47.182Z,27.80
2018-07-28T09:39:15.592Z,27.70
2018-07-28T09:41:44.034Z,27.80
2018-07-28T09:44:12.425Z,27.70
2018-07-28T09:49:09.007Z,27.80
2018-07-28T09:51:37.447Z,27.70
2018-07-28T09:54:05.840Z,27.40
2018-07-28T09:59:02.360Z,27.40
2018-07-28T10:01:30.824Z,27.40
2018-07-28T10:03:59.220Z,27.40
2018-07-28T10:06:27.666Z,27.30
2018-07-28T10:08:56.076Z,27.30
2018-07-28T10:11:24.500Z,27.30
2018-07-28T10:13:52.876Z,27.40
2018-07-28T10:16:21.373Z,27.50
2018-07-28T10:18:49.733Z,27.90
2018-07-28T10:23:46.290Z,27.90
2018-07-28T10:28:42.813Z,27.90
2018-07-28T10:31:11.239Z,28.10
2018-07-28T10:33:39.663Z,28.50
2018-07-28T10:38:36.572Z,28.70
2018-07-28T10:41:05.085Z,28.90
2018-07-28T10:43:33.547Z,29.20
2018-07-28T10:46:01.969Z,29.20
2018-07-28T10:48:30.397Z,29.00
2018-07-28T10:50:58.815Z,28.80
2018-07-28T10:53:27.240Z,28.90
2018-07-28T10:55:55.657Z,28.90
2018-07-28T10:58:24.065Z,29.30
2018-07-28T11:00:52.520Z,29.30
2018-07-28T11:03:20.973Z,29.30
2018-07-28T11:08:17.491Z,29.30
2018-07-28T11:10:45.914Z,29.20
2018-07-28T11:13:14.337Z,29.40
2018-07-28T11:15:42.850Z,29.50
2018-07-28T11:18:11.297Z,29.90
2018-07-28T11:20:39.702Z,30.50
2018-07-28T11:23:08.109Z,30.50
2018-07-28T11:25:36.492Z,30.50
2018-07-28T11:30:33.010Z,30.50
2018-07-28T11:33:12.707Z,30.70
2018-07-28T11:35:52.431Z,30.90
2018-07-28T11:41:06.687Z,31.40
2018-07-28T11:46:08.813Z,31.40
2018-07-28T11:48:37.696Z,31.30
2018-07-28T11:51:06.417Z,31.70
2018-07-28T11:53:34.847Z,31.70
2018-07-28T11:56:03.710Z,31.70
2018-07-28T12:01:00.380Z,31.30
2018-07-28T12:05:56.880Z,31.50
2018-07-28T12:08:25.285Z,31.50
2018-07-28T12:10:53.697Z,31.20
2018-07-28T12:13:22.108Z,31.10
2018-07-28T12:15:50.512Z,31.30
2018-07-28T12:20:47.250Z,31.50
2018-07-28T12:23:15.680Z,31.80
2018-07-28T12:25:44.064Z,32.00
2018-07-28T12:28:12.485Z,32.10
2018-07-28T12:30:40.908Z,32.10
2018-07-28T12:33:09.300Z,31.80
2018-07-28T12:35:37.717Z,31.60
2018-07-28T12:38:06.156Z,31.40
2018-07-28T12:40:34.617Z,30.90
2018-07-28T12:43:03.073Z,30.70
2018-07-28T12:45:31.499Z,30.70
2018-07-28T12:47:59.955Z,30.40
2018-07-28T12:50:28.385Z,29.10
2018-07-28T12:52:56.801Z,27.70
2018-07-28T12:55:25.334Z,25.90
2018-07-28T12:57:53.714Z,24.10
2018-07-28T13:00:22.124Z,23.70
2018-07-28T13:02:50.594Z,23.20
2018-07-28T13:05:19.049Z,23.00
2018-07-28T13:07:47.488Z,23.20
2018-07-28T13:10:15.915Z,23.50
2018-07-28T13:15:12.456Z,23.60
2018-07-28T13:17:40.849Z,23.50
2018-07-28T13:22:37.449Z,23.90
2018-07-28T13:25:05.864Z,24.40
2018-07-28T13:27:34.268Z,24.90
2018-07-28T13:30:02.720Z,25.10
2018-07-28T13:32:31.219Z,25.40
2018-07-28T13:34:59.641Z,25.70
2018-07-28T13:37:28.132Z,26.00
2018-07-28T13:39:56.566Z,26.50
2018-07-28T13:42:24.953Z,26.90
2018-07-28T13:44:53.399Z,27.10
2018-07-28T13:47:21.816Z,26.90
2018-07-28T13:49:50.272Z,26.80
2018-07-28T13:52:18.701Z,26.80
2018-07-28T13:54:47.141Z,27.00
2018-07-28T13:57:15.593Z,27.10
2018-07-28T13:59:44.019Z,26.80
2018-07-28T14:04:40.583Z,26.80
2018-07-28T14:07:09.037Z,26.90
2018-07-28T14:09:37.456Z,26.80
2018-07-28T14:12:05.932Z,26.90
2018-07-28T14:14:34.444Z,27.00
2018-07-28T14:17:02.869Z,27.00
2018-07-28T14:19:31.245Z,26.80
2018-07-28T14:21:59.692Z,26.80
2018-07-28T14:24:28.688Z,26.80
2018-07-28T14:26:57.151Z,26.70
2018-07-28T14:29:25.556Z,26.70
2018-07-28T14:31:54.003Z,26.50
2018-07-28T14:34:22.463Z,26.60
2018-07-28T14:36:51.107Z,26.70
2018-07-28T14:39:19.596Z,26.80
2018-07-28T14:41:48.104Z,27.00
2018-07-28T14:46:44.682Z,27.30
2018-07-28T14:49:13.110Z,27.40
2018-07-28T14:51:41.567Z,27.40
2018-07-28T14:54:09.983Z,27.50
2018-07-28T14:56:38.398Z,27.60
2018-07-28T14:59:07.224Z,27.70
2018-07-28T15:01:35.668Z,27.70
2018-07-28T15:04:04.072Z,27.70
2018-07-28T15:06:32.520Z,27.80
2018-07-28T15:09:00.993Z,27.70
2018-07-28T15:11:29.405Z,27.70
2018-07-28T15:13:57.836Z,27.80
2018-07-28T15:16:26.255Z,27.90
2018-07-28T15:18:54.665Z,28.00
2018-07-28T15:21:23.099Z,27.80
2018-07-28T15:23:51.509Z,27.60
2018-07-28T15:26:19.933Z,27.60
2018-07-28T15:28:51.229Z,27.70
2018-07-28T15:31:21.061Z,27.80
2018-07-28T15:33:49.470Z,27.60
2018-07-28T15:36:17.922Z,27.50
2018-07-28T15:38:46.313Z,27.50
2018-07-28T15:41:14.711Z,27.30
2018-07-28T15:43:43.121Z,27.30
2018-07-28T15:46:11.615Z,27.20
2018-07-28T15:48:40.033Z,27.20
2018-07-28T15:51:08.424Z,27.20
2018-07-28T15:53:36.892Z,27.20
2018-07-28T15:56:05.673Z,27.20
2018-07-28T15:58:34.081Z,27.20
2018-07-28T16:01:02.493Z,27.10
2018-07-28T16:03:30.905Z,27.00
2018-07-28T16:05:59.340Z,27.00
2018-07-28T16:08:27.740Z,27.00
2018-07-28T16:10:56.245Z,27.00
2018-07-28T16:13:24.675Z,26.90
2018-07-28T16:15:53.060Z,26.90
2018-07-28T16:18:21.472Z,26.80
2018-07-28T16:20:49.907Z,26.70
2018-07-28T16:23:18.302Z,26.50
2018-07-28T16:25:46.715Z,26.50
2018-07-28T16:28:15.137Z,26.40
2018-07-28T16:30:43.524Z,26.40
2018-07-28T16:33:11.925Z,26.40
2018-07-28T16:35:40.308Z,26.40
2018-07-28T16:40:37.445Z,26.50
2018-07-28T16:43:06.199Z,26.40
2018-07-28T16:45:34.608Z,26.40
2018-07-28T16:48:03.182Z,26.50
2018-07-28T16:50:31.586Z,26.40
2018-07-28T16:52:59.980Z,26.50
2018-07-28T16:55:28.398Z,26.50
2018-07-28T16:57:56.839Z,26.50
2018-07-28T17:00:25.302Z,26.50
2018-07-28T17:02:53.744Z,26.50
2018-07-28T17:05:22.124Z,26.40
2018-07-28T17:07:50.605Z,26.50
2018-07-28T17:10:19.016Z,26.50
2018-07-28T17:12:47.417Z,26.50
2018-07-28T17:15:15.832Z,26.50
2018-07-28T17:17:44.241Z,26.60
2018-07-28T17:22:40.894Z,26.70
2018-07-28T17:25:09.227Z,26.60
2018-07-28T17:27:37.678Z,26.60
2018-07-28T17:30:06.125Z,26.70
2018-07-28T17:32:34.799Z,26.70
2018-07-28T17:35:03.256Z,26.70
2018-07-28T17:39:59.777Z,26.70
2018-07-28T17:42:28.203Z,26.70
2018-07-28T17:44:56.628Z,26.60
2018-07-28T17:47:25.028Z,26.60
2018-07-28T17:49:53.447Z,26.50
2018-07-28T17:52:21.855Z,26.60
2018-07-28T17:54:50.484Z,26.50
2018-07-28T17:57:18.945Z,26.30
2018-07-28T17:59:47.306Z,26.40
2018-07-28T18:02:15.729Z,26.50
2018-07-28T18:07:12.275Z,26.40
2018-07-28T18:12:08.848Z,26.30
2018-07-28T18:14:37.254Z,26.30
2018-07-28T18:17:05.774Z,26.20
2018-07-28T18:19:34.233Z,26.20
2018-07-28T18:22:02.620Z,26.10
2018-07-28T18:24:31.078Z,26.10
2018-07-28T18:26:59.464Z,26.00
2018-07-28T18:29:27.888Z,26.10
2018-07-28T18:31:56.272Z,26.00
2018-07-28T18:36:52.819Z,26.10
2018-07-28T18:41:49.445Z,26.00
2018-07-28T18:44:17.834Z,25.90
2018-07-28T18:46:46.244Z,25.90
2018-07-28T18:49:14.725Z,25.80
2018-07-28T18:54:11.333Z,25.80
2018-07-28T18:56:39.890Z,25.90
2018-07-28T18:59:08.383Z,25.90
2018-07-28T19:01:36.837Z,25.90
2018-07-28T19:04:05.249Z,25.70
2018-07-28T19:06:33.653Z,25.80
2018-07-28T19:11:35.613Z,25.70
2018-07-28T19:14:09.481Z,25.60
2018-07-28T19:19:11.265Z,25.50
2018-07-28T19:24:07.769Z,25.40
2018-07-28T19:26:36.227Z,25.50
2018-07-28T19:29:10.136Z,25.50
2018-07-28T19:31:38.565Z,25.50
2018-07-28T19:34:06.960Z,25.40
2018-07-28T19:39:09.869Z,25.30
2018-07-28T19:42:42.363Z,25.20
2018-07-28T19:45:10.725Z,25.10
2018-07-28T19:50:07.354Z,25.00
2018-07-28T19:52:35.765Z,24.90
2018-07-28T19:55:04.189Z,24.70
2018-07-28T19:57:32.862Z,24.60
2018-07-28T20:00:01.343Z,24.50
2018-07-28T20:02:29.795Z,24.50
2018-07-28T20:04:58.196Z,24.50
2018-07-28T20:07:26.677Z,24.50
2018-07-28T20:09:55.099Z,24.50
2018-07-28T20:12:23.507Z,24.40
2018-07-28T20:17:20.085Z,24.30
2018-07-28T20:19:48.759Z,24.20
2018-07-28T20:22:17.120Z,24.20
2018-07-28T20:24:45.621Z,24.20
2018-07-28T20:27:14.128Z,24.20
2018-07-28T20:29:42.605Z,24.20
2018-07-28T20:32:11.179Z,24.00
2018-07-28T20:34:39.570Z,23.90
2018-07-28T20:37:08.041Z,23.90
2018-07-28T20:39:36.505Z,23.80
2018-07-28T20:42:04.922Z,23.80
2018-07-28T20:44:33.348Z,23.70
2018-07-28T20:47:01.940Z,23.70
2018-07-28T20:49:30.360Z,23.70
2018-07-28T20:51:58.824Z,23.60
2018-07-28T20:54:27.332Z,23.60
2018-07-28T20:56:55.869Z,23.70
2018-07-28T20:59:24.483Z,23.70
2018-07-28T21:01:53.016Z,23.60
2018-07-28T21:04:21.772Z,23.60
2018-07-28T21:06:50.234Z,23.50
2018-07-28T21:09:18.781Z,23.40
2018-07-28T21:14:15.360Z,23.40
2018-07-28T21:16:43.789Z,23.40
2018-07-28T21:19:12.256Z,23.30
2018-07-28T21:21:40.789Z,23.30
2018-07-28T21:24:09.640Z,23.30
2018-07-28T21:26:38.151Z,23.30
2018-07-28T21:31:34.849Z,23.20
2018-07-28T21:34:03.551Z,23.20
2018-07-28T21:36:31.948Z,23.10
2018-07-28T21:39:00.492Z,23.10
2018-07-28T21:41:29.180Z,23.10
2018-07-28T21:43:57.611Z,23.00
2018-07-28T21:46:26.000Z,23.00
2018-07-28T21:48:54.500Z,23.00
2018-07-28T21:51:22.891Z,23.10
2018-07-28T21:53:51.309Z,23.10
2018-07-28T21:56:23.751Z,23.00
2018-07-28T21:58:53.072Z,23.10
2018-07-28T22:01:21.500Z,23.00
2018-07-28T22:03:49.912Z,23.00
2018-07-28T22:06:18.411Z,23.00
2018-07-28T22:08:46.843Z,23.00
2018-07-28T22:13:43.421Z,22.90
2018-07-28T22:16:11.871Z,22.80
2018-07-28T22:18:40.322Z,22.80
2018-07-28T22:21:11.023Z,22.80
2018-07-28T22:23:39.508Z,22.70
2018-07-28T22:26:08.065Z,22.70
2018-07-28T22:33:32.884Z,22.70
2018-07-28T22:36:01.408Z,22.70
2018-07-28T22:38:29.859Z,22.70
2018-07-28T22:40:58.288Z,22.70
2018-07-28T22:43:26.735Z,22.70
2018-07-28T22:45:55.176Z,22.70
2018-07-28T22:48:23.569Z,22.70
2018-07-28T22:50:51.981Z,22.70
2018-07-28T22:53:20.380Z,22.60
2018-07-28T22:55:48.832Z,22.60
2018-07-28T22:58:17.240Z,22.60
2018-07-28T23:00:45.679Z,22.50
2018-07-28T23:03:14.118Z,22.50
2018-07-28T23:05:42.557Z,22.60
2018-07-28T23:08:11.036Z,22.60
2018-07-28T23:10:39.446Z,22.60
2018-07-28T23:13:07.871Z,22.60
2018-07-28T23:15:36.320Z,22.50
2018-07-28T23:18:04.741Z,22.50
2018-07-28T23:23:01.290Z,22.50
2018-07-28T23:25:29.719Z,22.40
2018-07-28T23:27:58.147Z,22.40
2018-07-28T23:30:26.605Z,22.30
2018-07-28T23:32:55.005Z,22.20
2018-07-28T23:35:23.450Z,22.30
2018-07-28T23:37:51.864Z,22.20
2018-07-28T23:40:20.335Z,22.20
2018-07-28T23:42:48.803Z,22.10
2018-07-28T23:45:17.229Z,22.00
2018-07-28T23:50:13.817Z,22.00
2018-07-28T23:52:42.481Z,22.10
2018-07-28T23:55:10.981Z,22.00
2018-07-28T23:57:39.396Z,22.00
